createdAt,value
2023-03-21T00:00:47.704Z,22.9552
2023-03-21T00:01:49.160Z,22.9552
2023-03-21T00:02:50.663Z,22.9537
2023-03-21T00:03:52.096Z,22.9539
2023-03-21T00:04:55.094Z,22.9557
2023-03-21T00:05:54.943Z,22.9487
2023-03-21T00:06:56.330Z,22.9498
2023-03-21T00:07:57.793Z,22.9482
2023-03-21T00:08:59.211Z,22.9470
2023-03-21T00:10:12.385Z,22.9443
2023-03-21T00:11:02.098Z,22.9347
2023-03-21T00:12:03.521Z,22.9348
2023-03-21T00:13:04.962Z,22.9382
2023-03-21T00:14:06.403Z,22.9422
2023-03-21T00:15:07.835Z,22.9467
2023-03-21T00:16:20.469Z,22.9491
2023-03-21T00:17:10.710Z,22.9464
2023-03-21T00:18:12.160Z,22.9479
2023-03-21T00:19:13.584Z,22.9450
2023-03-21T00:20:15.092Z,22.9454
2023-03-21T00:21:40.687Z,22.9444
2023-03-21T00:22:17.905Z,22.9357
2023-03-21T00:23:19.337Z,22.9347
2023-03-21T00:24:20.788Z,22.9357
2023-03-21T00:25:22.222Z,22.9368
2023-03-21T00:26:23.673Z,22.9360
2023-03-21T00:27:56.927Z,22.9354
2023-03-21T00:28:26.549Z,22.9277
2023-03-21T00:29:27.988Z,22.9292
2023-03-21T00:30:29.432Z,22.9304
2023-03-21T00:31:30.863Z,22.9331
2023-03-21T00:32:35.593Z,22.9342
2023-03-21T00:33:33.754Z,22.9298
2023-03-21T00:34:43.205Z,22.9323
2023-03-21T00:36:01.806Z,22.9273
2023-03-21T00:36:38.256Z,22.9248
2023-03-21T00:37:39.605Z,22.9290
2023-03-21T00:38:41.041Z,22.9270
2023-03-21T00:39:42.483Z,22.9259
2023-03-21T00:40:49.169Z,22.9296
2023-03-21T00:41:45.403Z,22.9235
2023-03-21T00:42:46.796Z,22.9239
2023-03-21T00:43:48.216Z,22.9282
2023-03-21T00:44:49.671Z,22.9331
2023-03-21T00:45:51.147Z,22.9355
2023-03-21T00:47:06.193Z,22.9356
2023-03-21T00:47:54.138Z,22.9317
2023-03-21T00:48:55.496Z,22.9372
2023-03-21T00:49:56.840Z,22.9408
2023-03-21T00:50:58.314Z,22.9414
2023-03-21T00:52:14.790Z,22.9426
2023-03-21T00:53:01.164Z,22.9378
2023-03-21T00:54:02.594Z,22.9387
2023-03-21T00:55:04.047Z,22.9438
2023-03-21T00:56:05.485Z,22.9434
2023-03-21T00:57:06.919Z,22.9432
2023-03-21T00:58:08.393Z,22.9461
2023-03-21T00:59:09.805Z,22.9472
2023-03-21T01:00:11.229Z,22.9429
2023-03-21T01:01:12.704Z,22.9375
2023-03-21T01:02:14.159Z,22.9331
2023-03-21T01:03:24.506Z,22.9369
2023-03-21T01:04:17.166Z,22.9303
2023-03-21T01:05:18.442Z,22.9305
2023-03-21T01:06:19.866Z,22.9315
2023-03-21T01:07:21.318Z,22.9329
2023-03-21T01:08:29.411Z,22.9338
2023-03-21T01:09:24.214Z,22.9263
2023-03-21T01:10:25.632Z,22.9241
2023-03-21T01:11:27.084Z,22.9270
2023-03-21T01:12:28.525Z,22.9267
2023-03-21T01:13:29.956Z,22.9235
2023-03-21T01:14:31.401Z,22.9270
2023-03-21T01:15:32.834Z,22.9308
2023-03-21T01:16:34.379Z,22.9339
2023-03-21T01:17:35.731Z,22.9370
2023-03-21T01:18:37.142Z,22.9399
2023-03-21T01:19:51.301Z,22.9370
2023-03-21T01:20:40.031Z,22.9321
2023-03-21T01:21:41.491Z,22.9367
2023-03-21T01:22:42.897Z,22.9396
2023-03-21T01:23:44.349Z,22.9411
2023-03-21T01:24:54.115Z,22.9384
2023-03-21T01:25:47.223Z,22.9359
2023-03-21T01:26:48.666Z,22.9360
2023-03-21T01:27:50.108Z,22.9367
2023-03-21T01:28:51.534Z,22.9340
2023-03-21T01:29:52.991Z,22.9370
2023-03-21T01:30:54.415Z,22.9366
2023-03-21T01:31:55.953Z,22.9383
2023-03-21T01:32:57.292Z,22.9344
2023-03-21T01:33:58.734Z,22.9330
2023-03-21T01:35:00.173Z,22.9372
2023-03-21T01:36:12.160Z,22.9389
2023-03-21T01:37:03.081Z,22.9305
2023-03-21T01:38:04.496Z,22.9298
2023-03-21T01:39:05.926Z,22.9321
2023-03-21T01:40:07.370Z,22.9352
2023-03-21T01:41:18.892Z,22.9334
2023-03-21T01:42:10.249Z,22.9233
2023-03-21T01:43:11.681Z,22.9211
2023-03-21T01:44:13.123Z,22.9227
2023-03-21T01:45:14.565Z,22.9251
2023-03-21T01:46:16.040Z,22.9252
2023-03-21T01:47:17.461Z,22.9257
2023-03-21T01:48:18.902Z,22.9244
2023-03-21T01:49:20.305Z,22.9247
2023-03-21T01:50:21.749Z,22.9253
2023-03-21T01:51:23.185Z,22.9257
2023-03-21T01:52:37.195Z,22.9260
2023-03-21T01:53:26.067Z,22.9176
2023-03-21T01:54:27.505Z,22.9153
2023-03-21T01:55:28.940Z,22.9180
2023-03-21T01:56:30.397Z,22.9178
2023-03-21T01:57:40.962Z,22.9193
2023-03-21T01:58:33.330Z,22.9150
2023-03-21T01:59:34.702Z,22.9143
2023-03-21T02:00:36.138Z,22.9164
2023-03-21T02:01:37.576Z,22.9153
2023-03-21T02:02:39.019Z,22.9130
2023-03-21T02:03:40.500Z,22.9081
2023-03-21T02:04:41.900Z,22.9089
2023-03-21T02:05:43.326Z,22.9084
2023-03-21T02:06:44.782Z,22.9059
2023-03-21T02:07:46.200Z,22.9045
2023-03-21T02:08:47.649Z,22.9012
2023-03-21T02:09:49.086Z,22.8972
2023-03-21T02:10:50.696Z,22.8965
2023-03-21T02:11:51.999Z,22.8949
2023-03-21T02:12:53.407Z,22.8938
2023-03-21T02:14:05.670Z,22.8882
2023-03-21T02:14:56.283Z,22.8831
2023-03-21T02:15:57.716Z,22.8946
2023-03-21T02:16:59.219Z,22.9060
2023-03-21T02:18:00.582Z,22.9136
2023-03-21T02:19:02.038Z,22.9140
2023-03-21T02:20:03.468Z,22.9145
2023-03-21T02:21:04.899Z,22.9149
2023-03-21T02:22:06.325Z,22.9123
2023-03-21T02:23:07.773Z,22.9103
2023-03-21T02:24:09.210Z,22.9086
2023-03-21T02:25:21.269Z,22.9102
2023-03-21T02:26:12.089Z,22.9056
2023-03-21T02:27:13.528Z,22.9037
2023-03-21T02:28:14.956Z,22.9046
2023-03-21T02:29:17.736Z,22.9092
2023-03-21T02:30:28.247Z,22.9135
2023-03-21T02:31:19.317Z,22.9044
2023-03-21T02:32:35.018Z,22.9062
2023-03-21T02:33:22.150Z,22.8986
2023-03-21T02:34:23.588Z,22.9005
2023-03-21T02:35:25.025Z,22.9012
2023-03-21T02:36:26.543Z,22.9007
2023-03-21T02:37:36.753Z,22.9030
2023-03-21T02:38:29.380Z,22.9013
2023-03-21T02:39:30.792Z,22.9025
2023-03-21T02:40:32.247Z,22.9014
2023-03-21T02:41:40.133Z,22.8995
2023-03-21T02:42:35.138Z,22.8937
2023-03-21T02:43:36.543Z,22.8954
2023-03-21T02:44:37.994Z,22.8981
2023-03-21T02:45:39.424Z,22.8989
2023-03-21T02:46:45.653Z,22.8962
2023-03-21T02:47:42.333Z,22.8876
2023-03-21T02:48:50.672Z,22.8890
2023-03-21T02:49:45.193Z,22.8816
2023-03-21T02:50:46.622Z,22.8828
2023-03-21T02:51:48.105Z,22.8916
2023-03-21T02:52:49.490Z,22.8956
2023-03-21T02:54:04.574Z,22.8953
2023-03-21T02:54:52.368Z,22.8884
2023-03-21T02:55:53.807Z,22.8946
2023-03-21T02:56:55.380Z,22.8966
2023-03-21T02:57:56.870Z,22.8951
2023-03-21T02:58:58.174Z,22.8914
2023-03-21T03:00:07.524Z,22.8921
2023-03-21T03:01:01.020Z,22.8829
2023-03-21T03:02:02.459Z,22.8881
2023-03-21T03:03:09.869Z,22.8934
2023-03-21T03:04:05.345Z,22.8915
2023-03-21T03:05:18.005Z,22.8930
2023-03-21T03:06:08.225Z,22.8903
2023-03-21T03:07:09.624Z,22.8930
2023-03-21T03:08:11.105Z,22.8961
2023-03-21T03:09:12.511Z,22.8997
2023-03-21T03:10:13.943Z,22.8996
2023-03-21T03:11:15.373Z,22.8974
2023-03-21T03:12:16.827Z,22.8967
2023-03-21T03:13:18.254Z,22.8908
2023-03-21T03:15:21.128Z,22.8807
2023-03-21T03:16:22.570Z,22.8812
2023-03-21T03:17:24.013Z,22.8813
2023-03-21T03:18:25.454Z,22.8824
2023-03-21T03:19:26.885Z,22.8827
2023-03-21T03:20:28.323Z,22.8859
2023-03-21T03:21:29.755Z,22.8859
2023-03-21T03:22:31.197Z,22.8822
2023-03-21T03:23:32.631Z,22.8821
2023-03-21T03:24:34.093Z,22.8819
2023-03-21T03:25:42.605Z,22.8813
2023-03-21T03:26:36.961Z,22.8723
2023-03-21T03:27:38.380Z,22.8730
2023-03-21T03:28:39.840Z,22.8758
2023-03-21T03:29:41.263Z,22.8793
2023-03-21T03:30:54.070Z,22.8764
2023-03-21T03:31:44.206Z,22.8709
2023-03-21T03:32:45.577Z,22.8719
2023-03-21T03:33:47.009Z,22.8720
2023-03-21T03:34:48.451Z,22.8721
2023-03-21T03:36:02.568Z,22.8703
2023-03-21T03:36:51.372Z,22.8653
2023-03-21T03:37:52.746Z,22.8674
2023-03-21T03:38:54.185Z,22.8728
2023-03-21T03:39:55.617Z,22.8721
2023-03-21T03:40:57.061Z,22.8764
2023-03-21T03:42:27.199Z,22.8757
2023-03-21T03:42:59.929Z,22.8684
2023-03-21T03:44:01.363Z,22.8681
2023-03-21T03:45:02.810Z,22.8693
2023-03-21T03:46:04.234Z,22.8714
2023-03-21T03:47:05.691Z,22.8713
2023-03-21T03:48:07.155Z,22.8669
2023-03-21T03:49:08.566Z,22.8651
2023-03-21T03:50:09.983Z,22.8662
2023-03-21T03:51:11.425Z,22.8657
2023-03-21T03:52:12.867Z,22.8668
2023-03-21T03:53:18.358Z,22.8647
2023-03-21T03:54:15.726Z,22.8619
2023-03-21T03:55:17.166Z,22.8604
2023-03-21T03:56:18.597Z,22.8611
2023-03-21T03:57:20.046Z,22.8625
2023-03-21T03:58:24.252Z,22.8633
2023-03-21T03:59:22.902Z,22.8588
2023-03-21T04:00:24.329Z,22.8599
2023-03-21T04:01:25.768Z,22.8608
2023-03-21T04:02:27.289Z,22.8634
2023-03-21T04:03:32.416Z,22.8642
2023-03-21T04:04:30.147Z,22.8536
2023-03-21T04:05:31.513Z,22.8574
2023-03-21T04:06:32.944Z,22.8585
2023-03-21T04:07:34.385Z,22.8616
2023-03-21T04:08:35.854Z,22.8604
2023-03-21T04:09:44.071Z,22.8594
2023-03-21T04:10:39.099Z,22.8565
2023-03-21T04:11:40.122Z,22.8543
2023-03-21T04:12:41.572Z,22.8512
2023-03-21T04:13:43.047Z,22.8502
2023-03-21T04:14:46.976Z,22.8498
2023-03-21T04:15:46.072Z,22.8438
2023-03-21T04:16:47.307Z,22.8397
2023-03-21T04:17:48.719Z,22.8418
2023-03-21T04:18:50.170Z,22.8406
2023-03-21T04:19:55.476Z,22.8435
2023-03-21T04:20:53.031Z,22.8387
2023-03-21T04:21:54.455Z,22.8407
2023-03-21T04:22:55.893Z,22.8396
2023-03-21T04:23:57.323Z,22.8401
2023-03-21T04:25:00.517Z,22.8436
2023-03-21T04:26:00.189Z,22.8438
2023-03-21T04:27:01.642Z,22.8462
2023-03-21T04:28:03.045Z,22.8499
2023-03-21T04:29:04.484Z,22.8503
2023-03-21T04:30:05.911Z,22.8488
2023-03-21T04:31:16.098Z,22.8482
2023-03-21T04:32:08.820Z,22.8435
2023-03-21T04:33:10.218Z,22.8401
2023-03-21T04:34:11.641Z,22.8427
2023-03-21T04:35:13.088Z,22.8452
2023-03-21T04:36:14.546Z,22.8462
2023-03-21T04:37:15.957Z,22.8435
2023-03-21T04:38:17.477Z,22.8469
2023-03-21T04:39:18.918Z,22.8445
2023-03-21T04:40:20.367Z,22.8409
2023-03-21T04:41:21.801Z,22.8368
2023-03-21T04:42:23.210Z,22.8377
2023-03-21T04:43:24.656Z,22.8380
2023-03-21T04:44:26.082Z,22.8364
2023-03-21T04:45:27.527Z,22.8328
2023-03-21T04:46:28.968Z,22.8270
2023-03-21T04:47:30.396Z,22.8208
2023-03-21T04:48:31.831Z,22.8311
2023-03-21T04:49:33.287Z,22.8359
2023-03-21T04:50:34.921Z,22.8371
2023-03-21T04:51:36.140Z,22.8354
2023-03-21T04:52:37.588Z,22.8328
2023-03-21T04:53:39.019Z,22.8328
2023-03-21T04:54:40.450Z,22.8357
2023-03-21T04:55:41.885Z,22.8335
2023-03-21T04:56:43.329Z,22.8314
2023-03-21T04:57:44.772Z,22.8305
2023-03-21T04:58:46.191Z,22.8302
2023-03-21T04:59:47.640Z,22.8281
2023-03-21T05:00:49.090Z,22.8307
2023-03-21T05:01:50.498Z,22.8209
2023-03-21T05:02:51.929Z,22.8163
2023-03-21T05:03:53.382Z,22.8191
2023-03-21T05:04:54.794Z,22.8252
2023-03-21T05:05:56.241Z,22.8263
2023-03-21T05:06:57.664Z,22.8243
2023-03-21T05:07:59.106Z,22.8192
2023-03-21T05:09:00.555Z,22.8200
2023-03-21T05:10:02.776Z,22.8183
2023-03-21T05:11:03.408Z,22.8127
2023-03-21T05:12:04.864Z,22.8070
2023-03-21T05:13:06.299Z,22.8047
2023-03-21T05:14:07.725Z,22.8014
2023-03-21T05:15:09.194Z,22.7940
2023-03-21T05:16:10.604Z,22.7882
2023-03-21T05:17:12.044Z,22.7865
2023-03-21T05:18:13.463Z,22.7872
2023-03-21T05:19:14.903Z,22.7866
2023-03-21T05:20:16.380Z,22.7865
2023-03-21T05:21:17.768Z,22.7861
2023-03-21T05:22:19.213Z,22.7885
2023-03-21T05:23:20.636Z,22.7872
2023-03-21T05:24:22.079Z,22.7855
2023-03-21T05:25:23.513Z,22.7846
2023-03-21T05:26:24.956Z,22.7820
2023-03-21T05:27:26.390Z,22.7814
2023-03-21T05:28:27.825Z,22.7821
2023-03-21T05:29:29.260Z,22.7801
2023-03-21T05:30:30.705Z,22.7778
2023-03-21T05:31:32.143Z,22.7765
2023-03-21T05:32:33.575Z,22.7741
2023-03-21T05:33:35.000Z,22.7718
2023-03-21T05:34:36.442Z,22.7739
2023-03-21T05:35:38.141Z,22.7787
2023-03-21T05:36:39.349Z,22.7849
2023-03-21T05:37:40.753Z,22.7903
2023-03-21T05:38:42.192Z,22.7932
2023-03-21T05:39:43.623Z,22.7986
2023-03-21T05:40:45.061Z,22.8033
2023-03-21T05:41:46.521Z,22.8023
2023-03-21T05:42:47.927Z,22.8054
2023-03-21T05:43:49.370Z,22.8066
2023-03-21T05:44:50.794Z,22.8055
2023-03-21T05:45:52.267Z,22.8001
2023-03-21T05:46:53.683Z,22.7562
2023-03-21T05:47:55.129Z,21.9127
2023-03-21T05:48:56.541Z,20.5099
2023-03-21T05:49:57.971Z,19.3344
2023-03-21T05:50:59.436Z,18.3207
2023-03-21T05:52:00.860Z,17.8814
2023-03-21T05:53:02.314Z,18.3216
2023-03-21T05:54:03.757Z,19.0161
2023-03-21T05:55:05.174Z,19.6571
2023-03-21T05:56:06.614Z,20.1591
2023-03-21T05:57:08.062Z,20.5659
2023-03-21T05:58:09.478Z,20.8937
2023-03-21T05:59:10.919Z,21.1573
2023-03-21T06:00:12.369Z,21.3685
2023-03-21T06:01:13.791Z,21.5429
2023-03-21T06:02:15.311Z,21.6870
2023-03-21T06:03:16.663Z,21.8047
2023-03-21T06:04:18.140Z,21.9002
2023-03-21T06:05:19.531Z,21.9823
2023-03-21T06:06:20.972Z,22.0520
2023-03-21T06:07:22.406Z,22.1085
2023-03-21T06:08:23.833Z,22.1570
2023-03-21T06:09:25.274Z,22.2012
2023-03-21T06:10:26.702Z,22.2201
2023-03-21T06:11:28.166Z,22.2437
2023-03-21T06:12:29.580Z,22.2692
2023-03-21T06:13:31.018Z,22.3070
2023-03-21T06:14:32.459Z,22.3068
2023-03-21T06:15:33.880Z,22.2782
2023-03-21T06:16:35.323Z,22.2347
2023-03-21T06:17:36.754Z,22.1839
2023-03-21T06:18:38.196Z,22.1497
2023-03-21T06:19:39.630Z,22.1338
2023-03-21T06:20:41.056Z,22.1430
2023-03-21T06:21:42.520Z,22.1515
2023-03-21T06:22:43.934Z,22.1515
2023-03-21T06:23:45.376Z,22.1469
2023-03-21T06:24:46.802Z,22.1617
2023-03-21T06:25:48.253Z,22.1866
2023-03-21T06:26:49.683Z,22.2107
2023-03-21T06:27:51.119Z,22.2319
2023-03-21T06:28:52.540Z,22.2574
2023-03-21T06:29:53.987Z,22.2803
2023-03-21T06:30:55.501Z,22.2882
2023-03-21T06:31:56.867Z,22.2949
2023-03-21T06:32:58.327Z,22.2671
2023-03-21T06:33:59.733Z,22.2422
2023-03-21T06:35:01.168Z,22.2260
2023-03-21T06:36:02.621Z,22.2054
2023-03-21T06:37:04.051Z,22.1857
2023-03-21T06:38:05.516Z,22.1677
2023-03-21T06:39:06.917Z,22.1592
2023-03-21T06:40:08.364Z,22.1489
2023-03-21T06:41:09.780Z,22.1399
2023-03-21T06:42:11.233Z,22.1307
2023-03-21T06:43:12.669Z,22.1283
2023-03-21T06:44:14.144Z,22.1447
2023-03-21T06:45:15.542Z,22.1655
2023-03-21T06:46:17.005Z,22.1912
2023-03-21T06:47:18.426Z,22.2232
2023-03-21T06:48:19.954Z,22.2475
2023-03-21T06:49:21.301Z,22.2606
2023-03-21T06:50:22.732Z,22.2596
2023-03-21T06:51:24.169Z,22.2627
2023-03-21T06:52:25.607Z,22.2778
2023-03-21T06:53:27.038Z,22.3025
2023-03-21T06:54:28.475Z,22.3216
2023-03-21T06:55:29.896Z,22.3396
2023-03-21T06:56:31.337Z,22.3629
2023-03-21T06:57:32.777Z,22.3850
2023-03-21T06:58:34.224Z,22.4062
2023-03-21T06:59:35.641Z,22.4271
2023-03-21T07:00:37.121Z,22.4433
2023-03-21T07:01:38.538Z,22.4554
2023-03-21T07:02:40.040Z,22.4698
2023-03-21T07:03:41.397Z,22.4828
2023-03-21T07:04:42.836Z,22.4995
2023-03-21T07:05:44.262Z,22.5121
2023-03-21T07:06:45.729Z,22.5240
2023-03-21T07:07:47.143Z,22.5401
2023-03-21T07:08:48.585Z,22.5404
2023-03-21T07:09:50.018Z,22.5441
2023-03-21T07:10:51.451Z,22.5554
2023-03-21T07:11:52.903Z,22.5653
2023-03-21T07:12:54.339Z,22.5782
2023-03-21T07:13:55.780Z,22.5831
2023-03-21T07:14:57.210Z,22.5907
2023-03-21T07:15:58.660Z,22.5997
2023-03-21T07:17:00.185Z,22.6054
2023-03-21T07:18:01.527Z,22.6116
2023-03-21T07:19:02.974Z,22.6193
2023-03-21T07:20:04.413Z,22.6218
2023-03-21T07:21:05.856Z,22.6248
2023-03-21T07:22:07.322Z,22.6253
2023-03-21T07:23:08.741Z,22.6241
2023-03-21T07:24:10.170Z,22.6293
2023-03-21T07:25:11.687Z,22.6339
2023-03-21T07:26:13.069Z,22.6370
2023-03-21T07:27:14.508Z,22.6428
2023-03-21T07:28:15.923Z,22.6523
2023-03-21T07:29:17.387Z,22.6563
2023-03-21T07:30:18.810Z,22.6648
2023-03-21T07:31:20.277Z,22.6698
2023-03-21T07:32:21.683Z,22.6595
2023-03-21T07:33:23.157Z,22.6680
2023-03-21T07:34:24.554Z,22.6845
2023-03-21T07:35:26.021Z,22.7068
2023-03-21T07:36:27.436Z,22.7202
2023-03-21T07:37:28.906Z,22.7323
2023-03-21T07:38:30.318Z,22.7460
2023-03-21T07:39:31.761Z,22.7605
2023-03-21T07:40:33.215Z,22.7552
2023-03-21T07:41:34.641Z,22.7169
2023-03-21T07:42:36.090Z,22.7306
2023-03-21T07:43:39.211Z,22.7658
2023-03-21T17:02:34.837Z,22.5730
2023-03-21T17:03:36.294Z,22.5007
2023-03-21T17:04:37.754Z,22.5455
2023-03-21T17:05:39.145Z,22.5837
2023-03-21T17:06:40.575Z,22.6153
2023-03-21T17:07:42.005Z,22.6440
2023-03-21T17:08:43.439Z,22.6650
2023-03-21T17:09:44.880Z,22.6817
2023-03-21T17:10:46.314Z,22.6986
2023-03-21T17:11:47.739Z,22.7130
2023-03-21T17:12:49.186Z,22.7251
2023-03-21T17:13:50.601Z,22.7343
2023-03-21T17:14:52.038Z,22.7384
2023-03-21T17:15:53.524Z,22.7391
2023-03-21T17:16:54.983Z,22.7396
2023-03-21T17:17:56.341Z,22.7415
2023-03-21T17:18:57.785Z,22.7423
2023-03-21T17:19:59.244Z,22.7476
2023-03-21T17:21:00.667Z,22.7710
2023-03-21T17:22:02.082Z,22.7834
2023-03-21T17:23:03.525Z,22.7932
2023-03-21T17:24:04.964Z,22.8033
2023-03-21T17:25:06.388Z,22.8063
2023-03-21T17:26:07.821Z,22.8041
2023-03-21T17:27:09.262Z,22.8053
2023-03-21T17:28:10.701Z,22.8059
2023-03-21T17:29:12.126Z,22.8012
2023-03-21T17:30:13.626Z,22.8070
2023-03-21T17:31:15.058Z,22.8124
2023-03-21T17:32:16.431Z,22.8050
2023-03-21T17:33:17.880Z,22.7978
2023-03-21T17:34:19.288Z,22.7983
2023-03-21T17:35:20.751Z,22.8015
2023-03-21T17:36:22.142Z,22.8128
2023-03-21T17:37:23.594Z,22.8001
2023-03-21T17:38:25.009Z,22.7956
2023-03-21T17:39:26.442Z,22.7840
2023-03-21T17:40:27.873Z,22.7618
2023-03-21T17:41:29.309Z,22.7711
2023-03-21T17:42:30.737Z,22.7771
2023-03-21T17:43:32.178Z,22.7775
2023-03-21T17:44:33.590Z,22.7747
2023-03-21T17:45:35.027Z,22.7694
2023-03-21T17:46:36.513Z,22.7625
2023-03-21T17:47:37.913Z,22.7594
2023-03-21T17:48:39.333Z,22.7628
2023-03-21T17:49:40.759Z,22.7615
2023-03-21T17:50:42.185Z,22.7633
2023-03-21T17:51:43.632Z,22.7619
2023-03-21T17:52:45.058Z,22.7555
2023-03-21T17:53:46.487Z,22.7540
2023-03-21T17:54:47.951Z,22.7530
2023-03-21T17:55:49.377Z,22.7534
2023-03-21T17:56:50.801Z,22.7509
2023-03-21T17:57:52.239Z,22.7506
2023-03-21T17:58:53.665Z,22.7517
2023-03-21T17:59:55.108Z,22.7521
2023-03-21T18:00:56.546Z,22.7491
2023-03-21T18:01:58.023Z,22.7626
2023-03-21T18:02:59.490Z,22.7670
2023-03-21T18:04:00.889Z,22.7846
2023-03-21T18:05:02.396Z,22.8024
2023-03-21T18:06:03.736Z,22.8041
2023-03-21T18:07:06.919Z,22.8162
2023-03-21T18:08:11.037Z,22.7987
2023-03-21T18:09:08.024Z,22.7871
2023-03-21T18:10:09.467Z,22.7869
2023-03-21T18:11:10.899Z,22.7818
2023-03-21T18:12:12.329Z,22.7751
2023-03-21T18:13:13.763Z,22.7658
2023-03-21T18:14:18.081Z,22.7546
2023-03-21T18:15:18.917Z,22.7457
2023-03-21T18:16:18.112Z,22.7401
2023-03-21T18:17:19.478Z,22.7377
2023-03-21T18:18:20.918Z,22.7329
2023-03-21T18:19:22.344Z,22.7255
2023-03-21T18:20:24.258Z,22.7242
2023-03-21T18:21:26.296Z,22.7301
2023-03-21T18:22:26.648Z,22.7246
2023-03-21T18:23:28.079Z,22.7202
2023-03-21T18:24:29.519Z,22.7153
2023-03-21T18:25:30.934Z,22.7103
2023-03-21T18:26:32.429Z,22.7093
2023-03-21T18:27:35.301Z,22.7187
2023-03-21T18:28:35.228Z,22.7226
2023-03-21T18:31:00.286Z,22.7221
2023-03-21T18:31:39.529Z,22.7128
2023-03-21T18:32:41.015Z,22.7205
2023-03-21T18:33:42.389Z,22.7563
2023-03-21T18:34:43.831Z,22.7776
2023-03-21T18:35:46.374Z,22.7773
2023-03-21T18:36:49.141Z,22.7799
2023-03-21T18:37:48.134Z,22.7750
2023-03-21T18:38:49.538Z,22.7698
2023-03-21T18:39:50.976Z,22.7657
2023-03-21T18:40:52.395Z,22.7582
2023-03-21T18:41:57.762Z,22.7513
2023-03-21T18:44:05.438Z,22.7375
2023-03-21T18:44:58.189Z,22.7315
2023-03-21T18:45:59.571Z,22.7303
2023-03-21T18:47:01.018Z,22.7332
2023-03-21T18:48:02.463Z,22.7302
2023-03-21T18:49:33.941Z,22.7268
2023-03-21T18:50:14.125Z,22.7189
2023-03-21T18:51:06.718Z,22.7143
2023-03-21T18:52:08.175Z,22.7178
2023-03-21T18:53:09.572Z,22.7202
2023-03-21T18:54:11.013Z,22.7188
2023-03-21T18:55:12.441Z,22.7179
2023-03-21T18:56:40.797Z,22.7164
2023-03-21T18:58:16.744Z,22.7027
2023-03-21T18:59:18.171Z,22.7070
2023-03-21T19:00:19.646Z,22.7075
2023-03-21T19:01:21.165Z,22.7076
2023-03-21T19:02:22.633Z,22.7103
2023-03-21T19:03:35.893Z,22.7072
2023-03-21T19:04:30.045Z,22.6931
2023-03-21T19:05:26.836Z,22.6890
2023-03-21T19:06:28.237Z,22.6923
2023-03-21T19:07:29.644Z,22.6938
2023-03-21T19:08:31.120Z,22.6951
2023-03-21T19:09:32.499Z,22.6954
2023-03-21T19:10:33.944Z,22.6997
2023-03-21T19:11:35.395Z,22.7032
2023-03-21T19:12:36.822Z,22.7052
2023-03-21T19:13:38.224Z,22.7015
2023-03-21T19:14:39.662Z,22.7009
2023-03-21T19:15:41.525Z,22.6991
2023-03-21T19:17:08.476Z,22.6955
2023-03-21T19:18:54.519Z,22.6783
2023-03-21T19:19:46.908Z,22.7004
2023-03-21T19:20:48.264Z,22.7098
2023-03-21T19:21:49.692Z,22.7203
2023-03-21T19:22:51.141Z,22.7386
2023-03-21T19:24:25.259Z,22.7490
2023-03-21T19:24:54.003Z,22.7462
2023-03-21T19:25:55.420Z,22.7438
2023-03-21T19:26:56.858Z,22.7310
2023-03-21T19:27:58.300Z,22.7241
2023-03-21T19:28:59.729Z,22.7142
2023-03-21T19:30:13.466Z,22.7035
2023-03-21T19:31:02.590Z,22.6886
2023-03-21T19:32:04.088Z,22.6843
2023-03-21T19:33:05.472Z,22.6799
2023-03-21T19:34:06.889Z,22.6772
2023-03-21T19:35:08.366Z,22.6751
2023-03-21T19:36:20.930Z,22.6748
2023-03-21T19:37:11.240Z,22.6669
2023-03-21T19:38:12.633Z,22.6643
2023-03-21T19:39:14.072Z,22.6650
2023-03-21T19:40:15.511Z,22.6662
2023-03-21T19:41:16.959Z,22.6654
2023-03-21T19:42:18.474Z,22.6641
2023-03-21T19:43:32.270Z,22.6652
2023-03-21T19:44:21.249Z,22.6587
2023-03-21T19:45:22.679Z,22.6605
2023-03-21T19:46:24.113Z,22.6615
2023-03-21T19:47:25.562Z,22.6632
2023-03-21T19:48:27.179Z,22.6625
2023-03-21T19:49:48.535Z,22.6822
2023-03-21T19:51:24.467Z,22.6765
2023-03-21T19:51:31.582Z,22.6695
2023-03-21T19:52:32.731Z,22.6695
2023-03-21T19:53:34.163Z,22.6719
2023-03-21T19:54:35.591Z,22.6722
2023-03-21T19:55:37.030Z,22.6724
2023-03-21T19:56:38.451Z,22.6760
2023-03-21T19:57:39.939Z,22.6752
2023-03-21T19:58:41.330Z,22.6754
2023-03-21T19:59:42.775Z,22.6723
2023-03-21T20:00:44.205Z,22.6715
2023-03-21T20:01:45.998Z,22.6733
2023-03-21T20:02:47.129Z,22.6713
2023-03-21T20:03:48.573Z,22.6719
2023-03-21T20:04:49.950Z,22.6720
2023-03-21T20:05:51.461Z,22.6710
2023-03-21T20:06:52.817Z,22.6716
2023-03-21T20:07:54.265Z,22.6722
2023-03-21T20:09:41.213Z,22.6717
2023-03-21T20:09:57.576Z,22.6687
2023-03-21T20:10:58.562Z,22.7121
2023-03-21T20:12:00.012Z,22.7556
2023-03-21T20:13:01.450Z,22.7682
2023-03-21T20:14:02.898Z,22.7814
2023-03-21T20:15:16.661Z,22.7733
2023-03-21T20:16:05.791Z,22.7558
2023-03-21T20:17:07.239Z,22.7477
2023-03-21T20:18:08.632Z,22.7440
2023-03-21T20:19:10.073Z,22.7381
2023-03-21T20:20:11.508Z,22.7326
2023-03-21T20:21:17.667Z,22.7275
2023-03-21T20:22:24.515Z,22.7155
2023-03-21T20:23:16.093Z,22.7063
2023-03-21T20:24:17.240Z,22.7165
2023-03-21T20:25:18.665Z,22.7272
2023-03-21T20:26:20.098Z,22.7318
2023-03-21T20:27:21.524Z,22.7335
2023-03-21T20:28:27.128Z,22.7363
2023-03-21T20:30:25.841Z,22.7302
2023-03-21T20:31:27.391Z,22.7429
2023-03-21T20:32:28.713Z,22.7606
2023-03-21T20:33:30.146Z,22.7598
2023-03-21T20:34:31.598Z,22.7692
2023-03-21T20:36:23.681Z,22.7860
2023-03-21T20:36:40.442Z,22.7886
2023-03-21T20:37:35.954Z,22.7955
2023-03-21T20:38:37.333Z,22.8048
2023-03-21T20:39:38.753Z,22.8045
2023-03-21T20:40:40.537Z,22.8104
2023-03-21T20:41:41.629Z,22.8100
2023-03-21T20:42:43.078Z,22.8122
2023-03-21T20:44:57.940Z,22.8080
2023-03-21T20:45:47.377Z,22.7978
2023-03-21T20:46:48.902Z,22.8034
2023-03-21T20:47:50.278Z,22.8025
2023-03-21T20:48:51.717Z,22.8062
2023-03-21T20:49:53.126Z,22.8011
2023-03-21T20:50:58.883Z,22.7955
2023-03-21T20:52:49.823Z,22.7877
2023-03-21T20:53:06.957Z,22.7740
2023-03-21T20:53:58.941Z,22.7728
2023-03-21T20:55:00.340Z,22.7733
2023-03-21T20:56:01.757Z,22.7717
2023-03-21T20:57:03.402Z,22.7708
2023-03-21T20:58:26.761Z,22.7889
2023-03-21T20:59:17.398Z,22.8000
2023-03-21T21:00:07.492Z,22.8196
2023-03-21T21:01:08.996Z,22.8262
2023-03-21T21:02:10.362Z,22.8359
2023-03-21T21:03:11.894Z,22.8479
2023-03-21T21:04:15.170Z,22.8498
2023-03-21T21:05:27.456Z,22.8448
2023-03-21T21:06:16.231Z,22.8241
2023-03-21T21:07:17.586Z,22.8135
2023-03-21T21:08:19.000Z,22.8056
2023-03-21T21:09:20.433Z,22.7986
2023-03-21T21:10:22.368Z,22.7841
2023-03-21T21:12:24.688Z,22.7570
2023-03-21T21:13:26.099Z,22.7464
2023-03-21T21:14:27.544Z,22.7397
2023-03-21T21:15:28.974Z,22.7341
2023-03-21T21:16:30.421Z,22.7275
2023-03-21T21:17:54.483Z,22.7201
2023-03-21T21:18:33.229Z,22.6964
2023-03-21T21:19:34.661Z,22.6769
2023-03-21T21:20:36.420Z,22.6920
2023-03-21T21:21:37.522Z,22.7136
2023-03-21T21:22:39.327Z,22.7193
2023-03-21T21:23:40.339Z,22.7137
2023-03-21T21:24:41.752Z,22.7092
2023-03-21T21:25:43.196Z,22.7037
2023-03-21T21:26:44.631Z,22.6934
2023-03-21T21:27:46.034Z,22.6818
2023-03-21T21:28:47.457Z,22.6707
2023-03-21T21:29:48.888Z,22.6609
2023-03-21T21:30:50.458Z,22.6623
2023-03-21T21:31:51.750Z,22.6595
2023-03-21T21:32:53.156Z,22.6592
2023-03-21T21:33:54.605Z,22.6567
2023-03-21T21:34:56.033Z,22.6514
2023-03-21T21:35:57.502Z,22.6451
2023-03-21T21:36:58.917Z,22.6428
2023-03-21T21:38:00.301Z,22.6401
2023-03-21T21:39:01.718Z,22.6381
2023-03-21T21:40:03.155Z,22.6369
2023-03-21T21:41:04.566Z,22.6334
2023-03-21T21:42:05.993Z,22.6288
2023-03-21T21:43:07.420Z,22.6264
2023-03-21T21:44:08.849Z,22.6242
2023-03-21T21:45:10.359Z,22.6206
2023-03-21T21:46:11.742Z,22.6166
2023-03-21T21:47:13.131Z,22.6175
2023-03-21T21:48:14.572Z,22.6257
2023-03-21T21:49:15.976Z,22.6293